sensor_id;sensor_type;location;lat;lon;timestamp;pressure;altitude;pressure_sealevel;temperature;humidity
44044;BME280;29709;52.396;16.796;2023-04-01T00:01:15;99730.89;;;11.17;87.27
44044;BME280;29709;52.396;16.796;2023-04-01T00:04:29;99729.20;;;11.16;87.11
44044;BME280;29709;52.396;16.796;2023-04-01T00:07:42;99729.84;;;11.18;87.95
44044;BME280;29709;52.396;16.796;2023-04-01T00:10:56;99736.23;;;11.25;87.04
44044;BME280;29709;52.396;16.796;2023-04-01T00:14:10;99733.30;;;11.26;87.55
44044;BME280;29709;52.396;16.796;2023-04-01T00:17:23;99727.40;;;11.30;86.61
44044;BME280;29709;52.396;16.796;2023-04-01T00:20:36;99726.75;;;11.27;86.80
44044;BME280;29709;52.396;16.796;2023-04-01T00:23:50;99729.51;;;11.27;87.08
44044;BME280;29709;52.396;16.796;2023-04-01T00:27:04;99726.55;;;11.29;86.88
44044;BME280;29709;52.396;16.796;2023-04-01T00:30:18;99733.54;;;11.32;86.79
44044;BME280;29709;52.396;16.796;2023-04-01T00:33:31;99720.84;;;11.31;87.08
44044;BME280;29709;52.396;16.796;2023-04-01T00:36:45;99719.59;;;11.33;87.07
44044;BME280;29709;52.396;16.796;2023-04-01T00:39:58;99723.19;;;11.34;87.30
44044;BME280;29709;52.396;16.796;2023-04-01T00:43:17;99722.12;;;11.35;86.64
44044;BME280;29709;52.396;16.796;2023-04-01T00:46:32;99720.44;;;11.34;85.79
44044;BME280;29709;52.396;16.796;2023-04-01T00:49:50;99717.45;;;11.28;85.99
44044;BME280;29709;52.396;16.796;2023-04-01T00:53:06;99715.48;;;11.22;87.04
44044;BME280;29709;52.396;16.796;2023-04-01T00:56:23;99718.87;;;11.24;87.62
44044;BME280;29709;52.396;16.796;2023-04-01T00:59:43;99710.25;;;11.27;87.06
44044;BME280;29709;52.396;16.796;2023-04-01T01:02:56;99719.80;;;11.32;86.81
44044;BME280;29709;52.396;16.796;2023-04-01T01:06:18;99707.09;;;11.31;87.35
44044;BME280;29709;52.396;16.796;2023-04-01T01:16:30;99704.48;;;11.22;86.47
44044;BME280;29709;52.396;16.796;2023-04-01T01:27:00;99703.12;;;11.12;87.32
44044;BME280;29709;52.396;16.796;2023-04-01T01:33:50;99703.77;;;11.14;86.99
44044;BME280;29709;52.396;16.796;2023-04-01T01:37:16;99707.36;;;11.14;86.88
44044;BME280;29709;52.396;16.796;2023-04-01T01:40:27;99703.53;;;11.09;87.97
44044;BME280;29709;52.396;16.796;2023-04-01T01:43:46;99701.86;;;11.14;87.33
44044;BME280;29709;52.396;16.796;2023-04-01T01:47:00;99691.24;;;11.05;87.18
44044;BME280;29709;52.396;16.796;2023-04-01T01:50:15;99702.67;;;11.08;87.97
44044;BME280;29709;52.396;16.796;2023-04-01T01:53:29;99699.93;;;11.08;88.13
44044;BME280;29709;52.396;16.796;2023-04-01T01:56:45;99694.63;;;11.07;88.00
44044;BME280;29709;52.396;16.796;2023-04-01T02:00:04;99691.89;;;11.07;88.16
44044;BME280;29709;52.396;16.796;2023-04-01T02:03:31;99699.93;;;11.08;87.68
44044;BME280;29709;52.396;16.796;2023-04-01T02:06:53;99698.02;;;11.09;87.97
44044;BME280;29709;52.396;16.796;2023-04-01T02:10:08;99708.83;;;11.10;88.71
44044;BME280;29709;52.396;16.796;2023-04-01T02:13:29;99704.45;;;11.16;87.81
44044;BME280;29709;52.396;16.796;2023-04-01T02:16:49;99695.34;;;11.15;87.98
44044;BME280;29709;52.396;16.796;2023-04-01T02:20:13;99688.80;;;11.16;87.69
44044;BME280;29709;52.396;16.796;2023-04-01T02:23:28;99691.77;;;11.21;87.84
44044;BME280;29709;52.396;16.796;2023-04-01T02:26:42;99689.68;;;11.23;88.07
44044;BME280;29709;52.396;16.796;2023-04-01T02:29:57;99703.63;;;11.22;88.04
44044;BME280;29709;52.396;16.796;2023-04-01T02:33:11;99696.02;;;11.24;87.89
44044;BME280;29709;52.396;16.796;2023-04-01T02:36:24;99699.62;;;11.24;87.87
44044;BME280;29709;52.396;16.796;2023-04-01T02:39:38;99692.69;;;11.28;87.46
44044;BME280;29709;52.396;16.796;2023-04-01T02:42:51;99693.10;;;11.25;87.94
44044;BME280;29709;52.396;16.796;2023-04-01T02:46:05;99696.02;;;11.24;88.41
44044;BME280;29709;52.396;16.796;2023-04-01T02:49:18;99703.89;;;11.27;87.26
44044;BME280;29709;52.396;16.796;2023-04-01T02:52:31;99704.10;;;11.25;87.64
44044;BME280;29709;52.396;16.796;2023-04-01T02:55:45;99706.66;;;11.27;87.51
44044;BME280;29709;52.396;16.796;2023-04-01T02:58:58;99708.72;;;11.25;87.61
44044;BME280;29709;52.396;16.796;2023-04-01T03:02:11;99712.15;;;11.27;87.81
44044;BME280;29709;52.396;16.796;2023-04-01T03:05:24;99713.44;;;11.31;88.11
44044;BME280;29709;52.396;16.796;2023-04-01T03:08:37;99720.84;;;11.31;87.56
44044;BME280;29709;52.396;16.796;2023-04-01T03:11:51;99718.94;;;11.31;86.59
44044;BME280;29709;52.396;16.796;2023-04-01T03:15:05;99714.49;;;11.30;86.90
44044;BME280;29709;52.396;16.796;2023-04-01T03:18:21;99715.11;;;11.25;88.39
44044;BME280;29709;52.396;16.796;2023-04-01T03:21:34;99713.64;;;11.30;88.17
44044;BME280;29709;52.396;16.796;2023-04-01T03:24:48;99712.45;;;11.39;88.00
44044;BME280;29709;52.396;16.796;2023-04-01T03:28:03;99715.64;;;11.42;87.77
44044;BME280;29709;52.396;16.796;2023-04-01T03:31:16;99716.07;;;11.46;87.61
44044;BME280;29709;52.396;16.796;2023-04-01T03:34:29;99709.08;;;11.43;87.11
44044;BME280;29709;52.396;16.796;2023-04-01T03:37:42;99717.48;;;11.35;87.40
44044;BME280;29709;52.396;16.796;2023-04-01T03:40:55;99713.44;;;11.31;87.25
44044;BME280;29709;52.396;16.796;2023-04-01T03:44:08;99719.80;;;11.32;87.51
44044;BME280;29709;52.396;16.796;2023-04-01T03:47:21;99719.35;;;11.28;87.35
44044;BME280;29709;52.396;16.796;2023-04-01T03:50:35;99722.95;;;11.28;87.09
44044;BME280;29709;52.396;16.796;2023-04-01T03:53:48;99722.30;;;11.26;87.11
44044;BME280;29709;52.396;16.796;2023-04-01T03:57:02;99722.48;;;11.25;87.07
44044;BME280;29709;52.396;16.796;2023-04-01T04:00:15;99728.18;;;11.23;86.96
44044;BME280;29709;52.396;16.796;2023-04-01T04:03:29;99730.29;;;11.21;86.85
44044;BME280;29709;52.396;16.796;2023-04-01T04:06:42;99727.33;;;11.23;86.31
44044;BME280;29709;52.396;16.796;2023-04-01T04:09:55;99736.20;;;11.18;87.41
44044;BME280;29709;52.396;16.796;2023-04-01T04:13:09;99731.74;;;11.17;86.99
44044;BME280;29709;52.396;16.796;2023-04-01T04:16:22;99743.11;;;11.14;87.03
44044;BME280;29709;52.396;16.796;2023-04-01T04:19:35;99742.02;;;11.09;86.62
44044;BME280;29709;52.396;16.796;2023-04-01T04:22:48;99739.20;;;11.02;87.32
44044;BME280;29709;52.396;16.796;2023-04-01T04:26:07;99746.80;;;11.00;87.09
44044;BME280;29709;52.396;16.796;2023-04-01T04:29:21;99748.90;;;10.98;87.62
44044;BME280;29709;52.396;16.796;2023-04-01T04:32:35;99749.75;;;10.98;88.09
44044;BME280;29709;52.396;16.796;2023-04-01T04:35:49;99753.15;;;11.01;87.63
44044;BME280;29709;52.396;16.796;2023-04-01T04:39:02;99759.50;;;11.01;88.00
44044;BME280;29709;52.396;16.796;2023-04-01T04:42:16;99750.84;;;11.04;87.70
44044;BME280;29709;52.396;16.796;2023-04-01T04:45:29;99755.33;;;11.05;87.42
44044;BME280;29709;52.396;16.796;2023-04-01T04:48:44;99758.24;;;11.04;87.35
44044;BME280;29709;52.396;16.796;2023-04-01T04:51:58;99761.68;;;11.06;87.87
44044;BME280;29709;52.396;16.796;2023-04-01T04:55:11;99764.02;;;11.09;87.28
44044;BME280;29709;52.396;16.796;2023-04-01T04:58:24;99762.77;;;11.11;87.07
44044;BME280;29709;52.396;16.796;2023-04-01T05:01:38;99774.62;;;11.12;87.22
44044;BME280;29709;52.396;16.796;2023-04-01T05:04:51;99768.71;;;11.15;87.16
44044;BME280;29709;52.396;16.796;2023-04-01T05:08:05;99773.37;;;11.14;87.18
44044;BME280;29709;52.396;16.796;2023-04-01T05:11:19;99776.79;;;11.16;87.61
44044;BME280;29709;52.396;16.796;2023-04-01T05:14:33;99768.79;;;11.21;87.23
44044;BME280;29709;52.396;16.796;2023-04-01T05:17:47;99786.15;;;11.22;86.58
44044;BME280;29709;52.396;16.796;2023-04-01T05:21:00;99789.95;;;11.21;86.41
44044;BME280;29709;52.396;16.796;2023-04-01T05:24:13;99782.30;;;11.16;87.11
44044;BME280;29709;52.396;16.796;2023-04-01T05:27:26;99784.84;;;11.18;87.94
44044;BME280;29709;52.396;16.796;2023-04-01T05:30:41;99791.63;;;11.22;87.82
44044;BME280;29709;52.396;16.796;2023-04-01T05:33:54;99787.59;;;11.18;87.26
44044;BME280;29709;52.396;16.796;2023-04-01T05:37:08;99785.90;;;11.17;87.27
44044;BME280;29709;52.396;16.796;2023-04-01T05:40:22;99797.95;;;11.16;88.07
44044;BME280;29709;52.396;16.796;2023-04-01T05:43:36;99793.88;;;11.12;87.44
44044;BME280;29709;52.396;16.796;2023-04-01T05:46:50;99790.47;;;11.10;87.66
44044;BME280;29709;52.396;16.796;2023-04-01T05:50:03;99794.27;;;11.09;87.37
44044;BME280;29709;52.396;16.796;2023-04-01T05:53:17;99804.66;;;11.13;87.87
44044;BME280;29709;52.396;16.796;2023-04-01T05:56:30;99795.97;;;11.10;88.01
44044;BME280;29709;52.396;16.796;2023-04-01T05:59:43;99800.70;;;11.16;88.20
44044;BME280;29709;52.396;16.796;2023-04-01T06:02:59;99800.09;;;11.20;87.18
44044;BME280;29709;52.396;16.796;2023-04-01T06:06:23;99807.22;;;11.15;87.30
44044;BME280;29709;52.396;16.796;2023-04-01T06:09:36;99806.12;;;11.09;87.95
44044;BME280;29709;52.396;16.796;2023-04-01T06:19:48;99824.40;;;11.17;88.00
44044;BME280;29709;52.396;16.796;2023-04-01T06:23:19;99819.74;;;11.17;87.81
44044;BME280;29709;52.396;16.796;2023-04-01T06:40:22;99823.23;;;11.26;88.21
44044;BME280;29709;52.396;16.796;2023-04-01T06:50:37;99839.58;;;11.34;88.09
44044;BME280;29709;52.396;16.796;2023-04-01T07:00:46;99843.70;;;11.23;88.90
44044;BME280;29709;52.396;16.796;2023-04-01T07:11:04;99855.87;;;11.36;88.68
44044;BME280;29709;52.396;16.796;2023-04-01T07:14:30;99855.02;;;11.35;89.07
44044;BME280;29709;52.396;16.796;2023-04-01T07:17:48;99861.90;;;11.46;89.17
44044;BME280;29709;52.396;16.796;2023-04-01T07:21:12;99870.16;;;11.46;88.86
44044;BME280;29709;52.396;16.796;2023-04-01T07:24:37;99867.16;;;11.41;88.15
44044;BME280;29709;52.396;16.796;2023-04-01T07:28:02;99868.66;;;11.43;89.01
44044;BME280;29709;52.396;16.796;2023-04-01T07:38:55;99871.68;;;11.27;89.94
44044;BME280;29709;52.396;16.796;2023-04-01T07:42:23;99883.91;;;11.24;89.70
44044;BME280;29709;52.396;16.796;2023-04-01T07:45:55;99886.80;;;11.16;89.88
44044;BME280;29709;52.396;16.796;2023-04-01T07:49:17;99896.35;;;11.20;90.14
44044;BME280;29709;52.396;16.796;2023-04-01T07:52:42;99894.85;;;11.18;90.59
44044;BME280;29709;52.396;16.796;2023-04-01T07:56:06;99895.96;;;11.23;90.29
44044;BME280;29709;52.396;16.796;2023-04-01T08:06:18;99911.50;;;11.31;90.94
44044;BME280;29709;52.396;16.796;2023-04-01T08:09:48;99914.33;;;11.38;91.05
44044;BME280;29709;52.396;16.796;2023-04-01T08:16:35;99928.85;;;11.32;91.26
44044;BME280;29709;52.396;16.796;2023-04-01T08:20:00;99931.90;;;11.37;90.87
44044;BME280;29709;52.396;16.796;2023-04-01T08:23:21;99935.95;;;11.41;90.80
44044;BME280;29709;52.396;16.796;2023-04-01T08:26:42;99930.69;;;11.46;91.16
44044;BME280;29709;52.396;16.796;2023-04-01T08:33:25;99944.51;;;11.31;90.65
44044;BME280;29709;52.396;16.796;2023-04-01T08:36:46;99944.61;;;11.23;91.04
44044;BME280;29709;52.396;16.796;2023-04-01T08:43:38;99953.92;;;11.22;90.77
44044;BME280;29709;52.396;16.796;2023-04-01T08:50:31;99957.32;;;11.24;90.75
44044;BME280;29709;52.396;16.796;2023-04-01T08:53:55;99963.41;;;11.19;91.19
44044;BME280;29709;52.396;16.796;2023-04-01T08:57:20;99961.91;;;11.17;90.96
44044;BME280;29709;52.396;16.796;2023-04-01T09:00:46;99972.91;;;11.17;90.62
44044;BME280;29709;52.396;16.796;2023-04-01T09:04:14;99965.52;;;11.17;90.99
44044;BME280;29709;52.396;16.796;2023-04-01T09:07:39;99967.76;;;11.28;91.17
44044;BME280;29709;52.396;16.796;2023-04-01T09:11:06;99969.27;;;11.31;90.79
44044;BME280;29709;52.396;16.796;2023-04-01T09:14:30;99983.41;;;11.28;90.91
44044;BME280;29709;52.396;16.796;2023-04-01T09:21:19;99988.16;;;11.19;90.04
44044;BME280;29709;52.396;16.796;2023-04-01T09:28:10;100000.57;;;11.30;90.51
44044;BME280;29709;52.396;16.796;2023-04-01T09:31:37;100003.78;;;11.34;90.02
44044;BME280;29709;52.396;16.796;2023-04-01T09:38:22;100015.82;;;11.47;89.62
44044;BME280;29709;52.396;16.796;2023-04-01T09:41:51;100019.83;;;11.30;89.08
44044;BME280;29709;52.396;16.796;2023-04-01T09:48:42;100026.10;;;11.09;89.62
44044;BME280;29709;52.396;16.796;2023-04-01T09:52:18;100029.25;;;11.06;90.20
44044;BME280;29709;52.396;16.796;2023-04-01T10:47:22;100088.27;;;10.66;89.84
44044;BME280;29709;52.396;16.796;2023-04-01T10:50:34;100086.37;;;10.66;89.90
44044;BME280;29709;52.396;16.796;2023-04-01T11:00:54;100106.94;;;10.33;90.21
44044;BME280;29709;52.396;16.796;2023-04-01T11:07:48;100112.66;;;10.46;90.59
44044;BME280;29709;52.396;16.796;2023-04-01T11:14:36;100107.58;;;10.58;90.10
44044;BME280;29709;52.396;16.796;2023-04-01T11:41:59;100132.85;;;10.91;87.52
44044;BME280;29709;52.396;16.796;2023-04-01T11:45:26;100134.47;;;10.85;87.97
44044;BME280;29709;52.396;16.796;2023-04-01T11:48:54;100150.72;;;10.72;87.40
44044;BME280;29709;52.396;16.796;2023-04-01T11:55:43;100158.03;;;10.42;89.17
44044;BME280;29709;52.396;16.796;2023-04-01T12:06:05;100176.37;;;10.10;90.65
44044;BME280;29709;52.396;16.796;2023-04-01T12:13:03;100171.98;;;10.01;91.55
44044;BME280;29709;52.396;16.796;2023-04-01T12:16:13;100179.19;;;10.02;91.36
44044;BME280;29709;52.396;16.796;2023-04-01T12:19:58;100185.08;;;9.91;91.42
44044;BME280;29709;52.396;16.796;2023-04-01T12:29:54;100193.37;;;9.75;92.36
44044;BME280;29709;52.396;16.796;2023-04-01T12:43:33;100206.14;;;9.60;92.06
44044;BME280;29709;52.396;16.796;2023-04-01T12:50:23;100216.09;;;9.52;91.83
44044;BME280;29709;52.396;16.796;2023-04-01T13:04:06;100233.86;;;9.73;90.96
44044;BME280;29709;52.396;16.796;2023-04-01T13:07:32;100235.39;;;9.75;89.19
44044;BME280;29709;52.396;16.796;2023-04-01T13:14:24;100238.97;;;9.84;89.33
44044;BME280;29709;52.396;16.796;2023-04-01T13:21:20;100246.45;;;9.98;87.12
44044;BME280;29709;52.396;16.796;2023-04-01T13:28:06;100255.20;;;10.02;86.62
44044;BME280;29709;52.396;16.796;2023-04-01T13:31:35;100250.04;;;9.99;86.65
44044;BME280;29709;52.396;16.796;2023-04-01T13:41:56;100257.51;;;9.82;87.40
44044;BME280;29709;52.396;16.796;2023-04-01T13:45:15;100260.17;;;9.98;86.65
44044;BME280;29709;52.396;16.796;2023-04-01T13:55:30;100259.84;;;10.01;85.33
44044;BME280;29709;52.396;16.796;2023-04-01T14:12:43;100286.56;;;10.07;82.87
44044;BME280;29709;52.396;16.796;2023-04-01T14:15:59;100296.05;;;9.97;83.27
44044;BME280;29709;52.396;16.796;2023-04-01T14:22:50;100301.53;;;9.97;83.62
44044;BME280;29709;52.396;16.796;2023-04-01T14:29:37;100294.67;;;10.01;83.10
44044;BME280;29709;52.396;16.796;2023-04-01T14:50:17;100319.80;;;9.65;84.22
44044;BME280;29709;52.396;16.796;2023-04-01T14:53:38;100325.10;;;9.67;84.56
44044;BME280;29709;52.396;16.796;2023-04-01T15:00:25;100338.52;;;9.53;84.30
44044;BME280;29709;52.396;16.796;2023-04-01T15:14:07;100352.41;;;9.60;83.61
44044;BME280;29709;52.396;16.796;2023-04-01T15:17:35;100357.35;;;9.65;83.53
44044;BME280;29709;52.396;16.796;2023-04-01T15:20:58;100368.50;;;9.71;82.73
44044;BME280;29709;52.396;16.796;2023-04-01T15:24:24;100366.80;;;9.70;82.31
44044;BME280;29709;52.396;16.796;2023-04-01T15:34:37;100381.36;;;9.46;83.31
44044;BME280;29709;52.396;16.796;2023-04-01T15:38:02;100390.47;;;9.39;83.77
44044;BME280;29709;52.396;16.796;2023-04-01T15:41:35;100395.77;;;9.32;84.15
44044;BME280;29709;52.396;16.796;2023-04-01T15:48:16;100398.01;;;9.29;83.93
44044;BME280;29709;52.396;16.796;2023-04-01T15:51:48;100406.74;;;9.32;84.35
44044;BME280;29709;52.396;16.796;2023-04-01T16:02:12;100414.98;;;9.40;83.20
44044;BME280;29709;52.396;16.796;2023-04-01T16:05:37;100410.53;;;9.39;82.96
44044;BME280;29709;52.396;16.796;2023-04-01T16:12:35;100420.64;;;9.39;82.44
44044;BME280;29709;52.396;16.796;2023-04-01T16:15:57;100429.55;;;9.41;82.18
44044;BME280;29709;52.396;16.796;2023-04-01T16:19:24;100431.61;;;9.39;82.24
44044;BME280;29709;52.396;16.796;2023-04-01T16:29:43;100456.23;;;9.14;83.14
44044;BME280;29709;52.396;16.796;2023-04-01T16:36:29;100466.61;;;8.94;84.58
44044;BME280;29709;52.396;16.796;2023-04-01T16:40:01;100474.84;;;8.94;84.23
44044;BME280;29709;52.396;16.796;2023-04-01T16:46:50;100476.85;;;8.84;83.97
44044;BME280;29709;52.396;16.796;2023-04-01T16:50:13;100488.66;;;8.77;84.41
44044;BME280;29709;52.396;16.796;2023-04-01T16:53:40;100505.91;;;8.69;84.89
44044;BME280;29709;52.396;16.796;2023-04-01T17:03:50;100507.33;;;8.47;84.69
44044;BME280;29709;52.396;16.796;2023-04-01T17:07:14;100521.36;;;8.44;84.69
44044;BME280;29709;52.396;16.796;2023-04-01T17:14:06;100530.63;;;8.33;84.92
44044;BME280;29709;52.396;16.796;2023-04-01T17:24:25;100543.36;;;8.17;84.20
44044;BME280;29709;52.396;16.796;2023-04-01T17:27:50;100553.38;;;8.08;84.56
44044;BME280;29709;52.396;16.796;2023-04-01T17:41:32;100574.50;;;7.98;84.40
44044;BME280;29709;52.396;16.796;2023-04-01T17:44:59;100582.87;;;7.96;83.88
44044;BME280;29709;52.396;16.796;2023-04-01T17:48:23;100585.21;;;7.91;83.42
44044;BME280;29709;52.396;16.796;2023-04-01T17:58:38;100596.54;;;7.78;82.62
44044;BME280;29709;52.396;16.796;2023-04-01T18:02:01;100596.33;;;7.72;83.10
44044;BME280;29709;52.396;16.796;2023-04-01T18:32:57;100654.04;;;7.51;82.79
44044;BME280;29709;52.396;16.796;2023-04-01T18:39:40;100669.75;;;7.39;82.03
44044;BME280;29709;52.396;16.796;2023-04-01T18:53:16;100699.22;;;7.08;80.54
44044;BME280;29709;52.396;16.796;2023-04-01T18:56:39;100698.69;;;6.95;81.41
44044;BME280;29709;52.396;16.796;2023-04-01T19:00:03;100712.95;;;6.99;80.96
44044;BME280;29709;52.396;16.796;2023-04-01T19:03:23;100713.80;;;6.99;80.55
44044;BME280;29709;52.396;16.796;2023-04-01T19:17:04;100734.53;;;6.82;80.89
44044;BME280;29709;52.396;16.796;2023-04-01T19:30:49;100747.07;;;6.46;81.60
44044;BME280;29709;52.396;16.796;2023-04-01T19:37:39;100760.41;;;6.49;81.56
44044;BME280;29709;52.396;16.796;2023-04-01T19:54:44;100787.25;;;6.34;81.89
44044;BME280;29709;52.396;16.796;2023-04-01T19:58:17;100795.75;;;6.41;81.35
44044;BME280;29709;52.396;16.796;2023-04-01T20:04:53;100811.56;;;6.38;82.53
44044;BME280;29709;52.396;16.796;2023-04-01T20:15:03;100828.48;;;6.31;82.90
44044;BME280;29709;52.396;16.796;2023-04-01T20:18:23;100829.06;;;6.35;83.31
44044;BME280;29709;52.396;16.796;2023-04-01T20:21:45;100832.94;;;6.32;83.68
44044;BME280;29709;52.396;16.796;2023-04-01T20:25:08;100841.70;;;6.26;83.54
44044;BME280;29709;52.396;16.796;2023-04-01T20:31:59;100850.73;;;6.17;83.61
44044;BME280;29709;52.396;16.796;2023-04-01T20:45:35;100867.20;;;6.06;81.75
44044;BME280;29709;52.396;16.796;2023-04-01T20:52:25;100877.80;;;5.99;81.90
44044;BME280;29709;52.396;16.796;2023-04-01T20:55:54;100877.36;;;5.94;82.65
44044;BME280;29709;52.396;16.796;2023-04-01T21:16:23;100901.63;;;5.97;82.36
44044;BME280;29709;52.396;16.796;2023-04-01T21:57:34;100955.04;;;5.58;82.00
44044;BME280;29709;52.396;16.796;2023-04-01T22:00:56;100957.04;;;5.56;81.43
44044;BME280;29709;52.396;16.796;2023-04-01T22:04:42;100965.07;;;5.58;81.74
44044;BME280;29709;52.396;16.796;2023-04-01T22:14:38;100978.05;;;5.65;80.87
44044;BME280;29709;52.396;16.796;2023-04-01T22:21:37;100995.58;;;5.51;80.83
44044;BME280;29709;52.396;16.796;2023-04-01T22:28:47;100996.30;;;5.33;81.60
44044;BME280;29709;52.396;16.796;2023-04-01T22:31:51;101002.95;;;5.40;80.71
44044;BME280;29709;52.396;16.796;2023-04-01T22:48:57;101023.70;;;5.20;82.05
44044;BME280;29709;52.396;16.796;2023-04-01T22:55:43;101029.65;;;5.25;80.75
44044;BME280;29709;52.396;16.796;2023-04-01T23:02:31;101041.31;;;5.16;80.99
44044;BME280;29709;52.396;16.796;2023-04-01T23:05:53;101046.76;;;5.16;81.16
44044;BME280;29709;52.396;16.796;2023-04-01T23:09:14;101056.52;;;5.18;80.57
44044;BME280;29709;52.396;16.796;2023-04-01T23:12:30;101059.92;;;5.11;80.52
44044;BME280;29709;52.396;16.796;2023-04-01T23:15:45;101058.94;;;5.01;80.52
44044;BME280;29709;52.396;16.796;2023-04-01T23:19:09;101068.73;;;4.92;81.49
44044;BME280;29709;52.396;16.796;2023-04-01T23:22:31;101068.33;;;4.97;80.93
44044;BME280;29709;52.396;16.796;2023-04-01T23:29:18;101068.33;;;4.97;80.28
44044;BME280;29709;52.396;16.796;2023-04-01T23:32:32;101078.50;;;4.95;80.15
44044;BME280;29709;52.396;16.796;2023-04-01T23:39:26;101085.30;;;4.89;80.48
44044;BME280;29709;52.396;16.796;2023-04-01T23:42:41;101092.85;;;4.97;80.58
44044;BME280;29709;52.396;16.796;2023-04-01T23:45:55;101094.22;;;5.02;79.68
44044;BME280;29709;52.396;16.796;2023-04-01T23:49:14;101097.82;;;4.91;79.90
44044;BME280;29709;52.396;16.796;2023-04-01T23:52:36;101097.70;;;4.93;79.44
44044;BME280;29709;52.396;16.796;2023-04-01T23:55:52;101105.34;;;4.88;79.56
